• Join FlightAware (Why Join?)
  • Login
  • US Flag 
04:11AM EDT


 

Airport Tracker/Info


-or-


 

Live Flight TrackerFlight Track Log ✈ AWE3417 ✈ 10-Jun-2013 ✈ KSDF - KPIT

Flight Track Log - Related Links

Times and Time Zones

All times are in EDT time to prevent confusion due to time zone crossing. See the AWE3417 flight status page for this flight to view local times or setup timezone preferences in your user account.

Time Position Orientation Groundspeed Altitude Reporting Facility
EDT Latitude Longitude Course Direction KTS MPH feet Rate Location/Type
06:31PM 38.0667 -85.4074 90° East  Level FlightAware Approximate
06:31PM 38.0806 -85.6275 100° East 275 316 4,900  Level Indianapolis Center
06:32PM 38.0652 -85.2752 103° East  Level FlightAware Approximate
06:32PM 38.0817 -85.5231 89° East 290 334 8,100  Level Indianapolis Center
06:33PM 38.0418 -85.1462 103° East  Level FlightAware Approximate
06:33PM 38.0767 -85.4131 93° East 308 354 10,800  Level Indianapolis Center
06:34PM 38.0249 -85.0159 99° East  Level FlightAware Approximate
06:34PM 38.0906 -85.2842 82° East 368 423 12,600  Level Indianapolis Center
06:35PM 38.0113 -84.8847 96° East  Level FlightAware Approximate
06:35PM 38.1025 -85.1464 84° East 383 441 15,000  Level Indianapolis Center
06:36PM 38.0004 -84.7548 96° East  Level FlightAware Approximate
06:36PM 38.1164 -84.9850 84° East 393 452 17,600  Level Indianapolis Center
06:37PM 37.9835 -84.6259 100° East  Level FlightAware Approximate
06:37PM 38.1289 -84.8411 84° East 407 468 19,600  Level Indianapolis Center
06:38PM 38.1417 -84.6903 84° East 423 487 21,600 1,800 Climbing Indianapolis Center
06:39PM 38.1536 -84.5378 84° East 430 495 23,400 1,620 Climbing Indianapolis Center
06:40PM 38.1661 -84.3819 84° East 439 505 25,000 1,380 Climbing Indianapolis Center
06:41PM 38.1803 -84.2211 84° East 452 520 26,300 1,200 Climbing Indianapolis Center
06:42PM 38.1933 -84.0558 84° East 465 535 27,500 1,260 Climbing Indianapolis Center
06:43PM 38.2078 -83.8597 85° East 474 545 29,000 1,560 Climbing Indianapolis Center
06:44PM 38.2200 -83.6944 85° East 469 540 30,800 1,560 Climbing Indianapolis Center
06:45PM 38.2325 -83.5333 84° East 459 528 32,200 1,020 Climbing Indianapolis Center
06:46PM 38.2431 -83.3731 85° East 454 522 33,000 360 Climbing Indianapolis Center
06:47PM 38.2483 -83.2039 88° East 475 547 33,000  Level Indianapolis Center
06:48PM 38.2544 -83.0275 87° East 495 570 33,000  Level Indianapolis Center
06:49PM 38.2608 -82.8508 87° East 498 573 33,000  Level Indianapolis Center
06:50PM 38.2667 -82.6744 88° East 498 573 33,000  Level Indianapolis Center
06:51PM 38.2733 -82.4694 88° East 504 580 33,000  Level Indianapolis Center
06:52PM 38.2789 -82.2894 88° East 509 586 33,000  Level Indianapolis Center
06:53PM 38.2847 -82.1111 88° East 505 581 33,000  Level Indianapolis Center
06:54PM 38.2897 -81.9328 88° East 507 583 33,000  Level Indianapolis Center
06:55PM 38.2947 -81.7542 88° East 509 586 33,000  Level Indianapolis Center
06:56PM 38.2994 -81.5744 88° East 514 592 33,000  Level Indianapolis Center
06:57PM 38.3031 -81.3581 89° East 516 594 33,000  Level Indianapolis Center
06:59PM 38.3069 -81.1769 88° East 518 596 33,000  Level Indianapolis Center
07:00PM 38.3108 -80.9942 88° East 520 598 33,000  Level Indianapolis Center
07:01PM 38.3139 -80.8100 89° East 523 602 33,000  Level Indianapolis Center
07:02PM 38.3286 -80.6231 84° East 530 610 33,000  Level Indianapolis Center
07:02PM 38.3422 -80.4894 83° East 521 600 33,000  Level Washington Center
07:03PM 38.3600 -80.3053 83° East 521 600 33,000  Level Washington Center
07:04PM 38.3778 -80.1208 83° East 521 600 33,000  Level Washington Center
07:05PM 38.3922 -79.9522 84° East 521 600 33,000  Level Washington Center
07:06PM 38.4094 -79.7650 83° East 521 600 33,000 -660 Level Washington Center
07:07PM 38.4239 -79.5856 84° East 521 600 31,700 -1,440 Descending Washington Center
07:08PM 38.4400 -79.4089 83° East 509 586 30,100 -1,800 Descending Washington Center
07:09PM 38.4567 -79.2108 84° East 509 586 28,200 -1,620 Descending Washington Center
07:10PM 38.4719 -79.0444 83° East 497 572 27,000 -840 Descending Washington Center
07:11PM 38.4994 -78.8814 78° East 477 549 26,500 -1,320 Descending Washington Center
07:12PM 38.5200 -78.7389 80° East 466 536 24,400 -2,100 Descending Washington Center
07:13PM 38.5425 -78.5858 79° East 452 520 22,400 -1,860 Descending Washington Center
07:14PM 38.5669 -78.4408 78° East 430 495 20,800 -1,800 Descending Washington Center
07:15PM 38.5911 -78.2983 78° East 419 482 18,800 -1,980 Descending Washington Center
07:16PM 38.6233 -78.1639 73° East 402 463 16,900 -1,800 Descending Washington Center
07:17PM 38.6428 -78.0239 80° East 402 463 15,200 -960 Descending Washington Center
07:18PM 38.5822 -77.9314 130° Southeast 323 372 15,000 -120 Descending Washington Center
07:19PM 38.5128 -77.8497 137° Southeast 323 372 15,000 -480 Level Washington Center
07:20PM 38.4278 -77.8181 164° South 304 350 14,100 -1,140 Descending Washington Center
07:21PM 38.3428 -77.7889 165° South 309 356 12,700 -1,440 Descending Washington Center
07:22PM 38.2622 -77.7547 162° South 309 356 11,300 -900 Descending Washington Center
07:23PM 38.2117 -77.6661 126° Southeast 292 336 11,000 -180 Descending Washington Center
07:24PM 38.1506 -77.7067 208° Southwest 241 277 11,000  Level Washington Center
07:26PM 38.2000 -77.8667 292° West 295 339 11,000  Level Potomac TRACON
07:27PM 38.2500 -77.9333 314° West 315 362 11,000  Level Potomac TRACON
07:28PM 38.3333 -77.9833 335° Northwest 329 379 11,000  Level Potomac TRACON
07:29PM 38.2667 -78.0333 210° Southwest 276 318 11,000  Level Potomac TRACON
07:30PM 38.2000 -78.0000 159° South 301 346 11,000  Level Potomac TRACON
07:31PM 38.1500 -77.9833 165° South 301 346 11,000  Level Potomac TRACON
07:32PM 38.0672 -78.0314 205° Southwest 249 287 11,100 1,200 Climbing Washington Center
07:33PM 38.1006 -78.1250 294° West 183 211 13,500 2,460 Climbing Washington Center
07:34PM 38.1422 -78.2239 298° West 243 280 16,000 1,680 Climbing Washington Center
07:35PM 38.1758 -78.3122 296° West 299 344 16,900 1,500 Climbing Washington Center
07:36PM 38.2172 -78.4194 296° West 315 362 19,100 1,500 Climbing Washington Center
07:37PM 38.2583 -78.5294 295° West 331 381 20,000 420 Climbing Washington Center
07:38PM 38.2994 -78.6369 296° West 337 388 20,000  Level Washington Center
07:39PM 38.3425 -78.7472 296° West 345 397 20,000  Level Washington Center
07:40PM 38.3853 -78.8550 297° West 345 397 20,000  Level Washington Center
07:41PM 38.4300 -78.9789 295° West 345 397 20,000  Level Washington Center
07:42PM 38.4706 -79.0869 296° West 345 397 20,000  Level Washington Center
07:43PM 38.5094 -79.1842 297° West 345 397 20,000  Level Washington Center
07:44PM 38.5669 -79.2828 307° West 345 397 20,000  Level Washington Center
07:45PM 38.6725 -79.3119 348° North 344 396 20,000  Level Washington Center
07:46PM 38.7808 -79.3147 359° North 352 405 20,000  Level Washington Center
07:47PM 38.9036 -79.3156 360° North 377 434 20,000  Level Washington Center
07:48PM 39.0244 -79.3192 359° North 407 468 20,000  Level Washington Center
07:50PM 39.2953 -79.3278 359° North 422 486 20,000  Level Cleveland Center
07:51PM 39.4119 -79.3364 357° North 422 486 20,000  Level Cleveland Center
07:52PM 39.5350 -79.3397 359° North 422 486 20,000  Level Cleveland Center
07:53PM 39.6461 -79.3833 343° North 422 486 20,000 -420 Level Cleveland Center
07:54PM 39.7531 -79.4464 336° Northwest 411 473 19,200 -1,440 Descending Cleveland Center
07:55PM 39.8517 -79.5069 335° Northwest 405 466 17,200 -2,040 Descending Cleveland Center
07:56PM 39.9458 -79.5622 336° Northwest 384 442 15,200 -2,040 Descending Cleveland Center
07:57PM 40.0381 -79.6206 334° Northwest 371 427 13,200 -1,920 Descending Cleveland Center
07:58PM 40.1261 -79.6736 335° Northwest 358 412 11,400 -1,620 Descending Cleveland Center
07:59PM 40.1994 -79.7406 325° Northwest 340 391 10,000 -1,080 Descending Cleveland Center
08:00PM 40.2667 -79.8078 323° Northwest 320 368 9,300 -1,680 Descending Cleveland Center
08:01PM 40.3275 -79.8669 323° Northwest 290 334 6,700 -2,520 Descending Cleveland Center
08:02PM 40.3822 -79.9261 321° Northwest 270 311 4,300 -1,380 Descending Cleveland Center
08:03PM 40.4261 -79.9831 315° West 247 284 4,000 -600 Descending Cleveland Center
08:04PM 40.4683 -80.0428 313° West 228 262 3,100 -660 Descending Cleveland Center
08:05PM 40.4853 -80.1108 288° West 215 247 2,700 -720 Descending Cleveland Center
08:06PM 40.4856 -80.1736 270° West 178 205 1,700 -1,020 Descending Cleveland Center
08:08PM 40.4833 -80.2167 270° West  Level FlightAware Approximate
08:15PM 40.4915 -80.2329 270° West  Level Estimated
08:16PM 40.4915 -80.2329 270° West  Level Estimated